sensor_id;sensor_type;location;lat;lon;timestamp;P1;durP1;ratioP1;P2;durP2;ratioP2
74658;SDS011;63186;51.204;6.536;2022-11-21T00:02:21;7.23;;;2.17;;
74658;SDS011;63186;51.204;6.536;2022-11-21T00:04:46;16.77;;;3.50;;
74658;SDS011;63186;51.204;6.536;2022-11-21T00:07:11;10.23;;;2.97;;
74658;SDS011;63186;51.204;6.536;2022-11-21T00:09:37;13.37;;;3.63;;
74658;SDS011;63186;51.204;6.536;2022-11-21T00:12:02;16.47;;;4.20;;
74658;SDS011;63186;51.204;6.536;2022-11-21T00:14:27;14.60;;;4.72;;
74658;SDS011;63186;51.204;6.536;2022-11-21T00:16:52;18.87;;;3.90;;
74658;SDS011;63186;51.204;6.536;2022-11-21T00:19:18;18.20;;;4.93;;
74658;SDS011;63186;51.204;6.536;2022-11-21T00:21:43;12.45;;;4.13;;
74658;SDS011;63186;51.204;6.536;2022-11-21T00:24:08;14.47;;;4.13;;
74658;SDS011;63186;51.204;6.536;2022-11-21T00:26:34;14.70;;;4.65;;
74658;SDS011;63186;51.204;6.536;2022-11-21T00:29:01;8.25;;;3.30;;
74658;SDS011;63186;51.204;6.536;2022-11-21T00:31:26;10.53;;;3.17;;
74658;SDS011;63186;51.204;6.536;2022-11-21T00:33:51;12.20;;;4.13;;
74658;SDS011;63186;51.204;6.536;2022-11-21T00:36:17;12.13;;;4.30;;
74658;SDS011;63186;51.204;6.536;2022-11-21T00:38:42;13.63;;;3.88;;
74658;SDS011;63186;51.204;6.536;2022-11-21T00:41:07;12.23;;;4.30;;
74658;SDS011;63186;51.204;6.536;2022-11-21T00:43:32;11.30;;;3.53;;
74658;SDS011;63186;51.204;6.536;2022-11-21T00:45:58;12.70;;;3.65;;
74658;SDS011;63186;51.204;6.536;2022-11-21T00:48:26;15.18;;;4.95;;
74658;SDS011;63186;51.204;6.536;2022-11-21T00:50:51;7.68;;;3.30;;
74658;SDS011;63186;51.204;6.536;2022-11-21T00:53:17;13.53;;;4.43;;
74658;SDS011;63186;51.204;6.536;2022-11-21T00:55:42;11.27;;;3.67;;
74658;SDS011;63186;51.204;6.536;2022-11-21T00:58:07;14.38;;;4.20;;
74658;SDS011;63186;51.204;6.536;2022-11-21T01:00:32;14.87;;;4.70;;
74658;SDS011;63186;51.204;6.536;2022-11-21T01:02:58;16.60;;;4.77;;
74658;SDS011;63186;51.204;6.536;2022-11-21T01:05:23;13.70;;;3.67;;
74658;SDS011;63186;51.204;6.536;2022-11-21T01:07:48;11.27;;;3.57;;
74658;SDS011;63186;51.204;6.536;2022-11-21T01:10:14;14.63;;;4.03;;
74658;SDS011;63186;51.204;6.536;2022-11-21T01:12:39;10.65;;;2.90;;
74658;SDS011;63186;51.204;6.536;2022-11-21T01:15:04;6.43;;;3.10;;
74658;SDS011;63186;51.204;6.536;2022-11-21T01:17:31;8.75;;;3.47;;
74658;SDS011;63186;51.204;6.536;2022-11-21T01:19:57;9.65;;;3.20;;
74658;SDS011;63186;51.204;6.536;2022-11-21T01:22:22;8.87;;;3.10;;
74658;SDS011;63186;51.204;6.536;2022-11-21T01:24:47;10.40;;;2.90;;
74658;SDS011;63186;51.204;6.536;2022-11-21T01:27:13;8.70;;;3.00;;
74658;SDS011;63186;51.204;6.536;2022-11-21T01:29:38;7.60;;;3.27;;
74658;SDS011;63186;51.204;6.536;2022-11-21T01:32:03;11.97;;;3.97;;
74658;SDS011;63186;51.204;6.536;2022-11-21T01:34:29;14.20;;;5.55;;
74658;SDS011;63186;51.204;6.536;2022-11-21T01:36:54;14.53;;;6.93;;
74658;SDS011;63186;51.204;6.536;2022-11-21T01:39:19;14.43;;;5.00;;
74658;SDS011;63186;51.204;6.536;2022-11-21T01:41:44;17.60;;;5.53;;
74658;SDS011;63186;51.204;6.536;2022-11-21T01:47:07;13.30;;;6.53;;
74658;SDS011;63186;51.204;6.536;2022-11-21T01:49:32;16.30;;;6.20;;
74658;SDS011;63186;51.204;6.536;2022-11-21T01:52:08;13.23;;;5.13;;
74658;SDS011;63186;51.204;6.536;2022-11-21T01:57:35;13.25;;;4.90;;
74658;SDS011;63186;51.204;6.536;2022-11-21T02:00:10;13.48;;;6.20;;
74658;SDS011;63186;51.204;6.536;2022-11-21T02:02:41;16.33;;;5.75;;
74658;SDS011;63186;51.204;6.536;2022-11-21T02:05:08;15.27;;;6.60;;
74658;SDS011;63186;51.204;6.536;2022-11-21T02:07:38;18.05;;;8.07;;
74658;SDS011;63186;51.204;6.536;2022-11-21T02:10:07;23.63;;;12.30;;
74658;SDS011;63186;51.204;6.536;2022-11-21T02:12:43;26.52;;;14.30;;
74658;SDS011;63186;51.204;6.536;2022-11-21T02:15:12;28.48;;;14.45;;
74658;SDS011;63186;51.204;6.536;2022-11-21T02:17:38;27.13;;;14.43;;
74658;SDS011;63186;51.204;6.536;2022-11-21T02:20:07;31.07;;;15.77;;
74658;SDS011;63186;51.204;6.536;2022-11-21T02:25:19;31.13;;;16.10;;
74658;SDS011;63186;51.204;6.536;2022-11-21T02:27:51;31.85;;;15.25;;
74658;SDS011;63186;51.204;6.536;2022-11-21T02:30:21;30.92;;;14.50;;
74658;SDS011;63186;51.204;6.536;2022-11-21T02:32:47;37.53;;;16.02;;
74658;SDS011;63186;51.204;6.536;2022-11-21T02:35:13;31.13;;;14.90;;
74658;SDS011;63186;51.204;6.536;2022-11-21T02:37:40;35.50;;;16.20;;
74658;SDS011;63186;51.204;6.536;2022-11-21T02:40:07;34.20;;;16.67;;
74658;SDS011;63186;51.204;6.536;2022-11-21T02:42:37;33.75;;;16.52;;
74658;SDS011;63186;51.204;6.536;2022-11-21T02:45:15;34.47;;;16.52;;
74658;SDS011;63186;51.204;6.536;2022-11-21T02:47:44;34.25;;;17.92;;
74658;SDS011;63186;51.204;6.536;2022-11-21T02:50:15;39.40;;;18.95;;
74658;SDS011;63186;51.204;6.536;2022-11-21T02:52:44;40.05;;;17.75;;
74658;SDS011;63186;51.204;6.536;2022-11-21T02:55:09;38.90;;;18.45;;
74658;SDS011;63186;51.204;6.536;2022-11-21T02:57:39;37.80;;;17.73;;
74658;SDS011;63186;51.204;6.536;2022-11-21T03:00:05;41.75;;;17.75;;
74658;SDS011;63186;51.204;6.536;2022-11-21T03:02:31;35.83;;;16.35;;
74658;SDS011;63186;51.204;6.536;2022-11-21T03:04:56;34.67;;;16.63;;
74658;SDS011;63186;51.204;6.536;2022-11-21T03:07:22;39.47;;;17.30;;
74658;SDS011;63186;51.204;6.536;2022-11-21T03:09:47;38.40;;;19.20;;
74658;SDS011;63186;51.204;6.536;2022-11-21T03:12:12;42.27;;;18.87;;
74658;SDS011;63186;51.204;6.536;2022-11-21T03:14:38;39.37;;;17.00;;
74658;SDS011;63186;51.204;6.536;2022-11-21T03:17:03;42.47;;;19.60;;
74658;SDS011;63186;51.204;6.536;2022-11-21T03:19:28;32.47;;;16.23;;
74658;SDS011;63186;51.204;6.536;2022-11-21T03:21:54;39.17;;;19.67;;
74658;SDS011;63186;51.204;6.536;2022-11-21T03:24:20;43.08;;;20.17;;
74658;SDS011;63186;51.204;6.536;2022-11-21T03:26:45;37.80;;;18.23;;
74658;SDS011;63186;51.204;6.536;2022-11-21T03:29:10;44.37;;;20.10;;
74658;SDS011;63186;51.204;6.536;2022-11-21T03:31:36;42.30;;;19.63;;
74658;SDS011;63186;51.204;6.536;2022-11-21T03:34:01;42.15;;;20.50;;
74658;SDS011;63186;51.204;6.536;2022-11-21T03:36:26;44.08;;;19.23;;
74658;SDS011;63186;51.204;6.536;2022-11-21T03:38:53;43.67;;;19.02;;
74658;SDS011;63186;51.204;6.536;2022-11-21T03:41:20;45.67;;;19.85;;
74658;SDS011;63186;51.204;6.536;2022-11-21T03:44:02;42.90;;;20.95;;
74658;SDS011;63186;51.204;6.536;2022-11-21T03:46:32;42.15;;;19.08;;
74658;SDS011;63186;51.204;6.536;2022-11-21T03:48:59;48.90;;;22.20;;
74658;SDS011;63186;51.204;6.536;2022-11-21T03:51:25;40.30;;;19.77;;
74658;SDS011;63186;51.204;6.536;2022-11-21T03:53:51;45.20;;;19.70;;
74658;SDS011;63186;51.204;6.536;2022-11-21T03:56:16;44.60;;;18.83;;
74658;SDS011;63186;51.204;6.536;2022-11-21T03:58:42;48.72;;;19.75;;
74658;SDS011;63186;51.204;6.536;2022-11-21T04:01:07;44.10;;;20.15;;
74658;SDS011;63186;51.204;6.536;2022-11-21T04:03:32;39.53;;;19.77;;
74658;SDS011;63186;51.204;6.536;2022-11-21T04:05:58;44.83;;;19.33;;
74658;SDS011;63186;51.204;6.536;2022-11-21T04:08:24;48.22;;;20.70;;
74658;SDS011;63186;51.204;6.536;2022-11-21T04:10:50;44.20;;;18.45;;
74658;SDS011;63186;51.204;6.536;2022-11-21T04:13:16;48.42;;;21.48;;
74658;SDS011;63186;51.204;6.536;2022-11-21T04:15:42;44.08;;;21.65;;
74658;SDS011;63186;51.204;6.536;2022-11-21T04:18:07;46.35;;;20.42;;
74658;SDS011;63186;51.204;6.536;2022-11-21T04:20:33;48.15;;;19.38;;
74658;SDS011;63186;51.204;6.536;2022-11-21T04:22:58;47.58;;;19.88;;
74658;SDS011;63186;51.204;6.536;2022-11-21T04:25:23;47.57;;;20.77;;
74658;SDS011;63186;51.204;6.536;2022-11-21T04:27:48;47.77;;;20.77;;
74658;SDS011;63186;51.204;6.536;2022-11-21T04:30:14;50.57;;;20.13;;
74658;SDS011;63186;51.204;6.536;2022-11-21T04:32:39;52.13;;;23.13;;
74658;SDS011;63186;51.204;6.536;2022-11-21T04:35:05;44.60;;;21.15;;
74658;SDS011;63186;51.204;6.536;2022-11-21T04:37:31;59.05;;;22.25;;
74658;SDS011;63186;51.204;6.536;2022-11-21T04:39:56;51.20;;;22.50;;
74658;SDS011;63186;51.204;6.536;2022-11-21T04:42:21;48.07;;;22.60;;
74658;SDS011;63186;51.204;6.536;2022-11-21T04:44:46;49.80;;;22.07;;
74658;SDS011;63186;51.204;6.536;2022-11-21T04:47:12;48.23;;;20.83;;
74658;SDS011;63186;51.204;6.536;2022-11-21T04:49:37;50.23;;;23.00;;
74658;SDS011;63186;51.204;6.536;2022-11-21T04:52:02;46.27;;;21.10;;
74658;SDS011;63186;51.204;6.536;2022-11-21T04:54:28;53.85;;;23.05;;
74658;SDS011;63186;51.204;6.536;2022-11-21T04:56:53;51.97;;;20.77;;
74658;SDS011;63186;51.204;6.536;2022-11-21T04:59:18;51.35;;;21.48;;
74658;SDS011;63186;51.204;6.536;2022-11-21T05:01:43;57.37;;;23.97;;
74658;SDS011;63186;51.204;6.536;2022-11-21T05:04:09;51.43;;;22.37;;
74658;SDS011;63186;51.204;6.536;2022-11-21T05:06:34;56.17;;;22.90;;
74658;SDS011;63186;51.204;6.536;2022-11-21T05:08:59;55.90;;;23.47;;
74658;SDS011;63186;51.204;6.536;2022-11-21T05:11:24;54.83;;;21.67;;
74658;SDS011;63186;51.204;6.536;2022-11-21T05:14:08;57.42;;;23.70;;
74658;SDS011;63186;51.204;6.536;2022-11-21T05:16:34;52.47;;;22.37;;
74658;SDS011;63186;51.204;6.536;2022-11-21T05:18:59;53.83;;;23.05;;
74658;SDS011;63186;51.204;6.536;2022-11-21T05:21:24;51.80;;;23.25;;
74658;SDS011;63186;51.204;6.536;2022-11-21T05:23:50;44.47;;;22.60;;
74658;SDS011;63186;51.204;6.536;2022-11-21T05:26:15;52.33;;;23.37;;
74658;SDS011;63186;51.204;6.536;2022-11-21T05:28:40;51.73;;;21.43;;
74658;SDS011;63186;51.204;6.536;2022-11-21T05:31:05;50.13;;;19.98;;
74658;SDS011;63186;51.204;6.536;2022-11-21T05:33:31;52.97;;;21.63;;
74658;SDS011;63186;51.204;6.536;2022-11-21T05:35:56;55.10;;;21.13;;
74658;SDS011;63186;51.204;6.536;2022-11-21T05:38:22;50.83;;;21.50;;
74658;SDS011;63186;51.204;6.536;2022-11-21T05:40:47;53.13;;;23.07;;
74658;SDS011;63186;51.204;6.536;2022-11-21T05:43:12;55.47;;;22.50;;
74658;SDS011;63186;51.204;6.536;2022-11-21T05:45:56;52.65;;;20.73;;
74658;SDS011;63186;51.204;6.536;2022-11-21T05:48:22;55.17;;;22.40;;
74658;SDS011;63186;51.204;6.536;2022-11-21T05:50:47;54.97;;;23.27;;
74658;SDS011;63186;51.204;6.536;2022-11-21T05:53:15;55.75;;;21.25;;
74658;SDS011;63186;51.204;6.536;2022-11-21T05:55:41;49.42;;;22.48;;
74658;SDS011;63186;51.204;6.536;2022-11-21T05:58:06;51.60;;;20.90;;
74658;SDS011;63186;51.204;6.536;2022-11-21T06:00:33;54.47;;;21.92;;
74658;SDS011;63186;51.204;6.536;2022-11-21T06:02:58;61.30;;;24.00;;
74658;SDS011;63186;51.204;6.536;2022-11-21T06:05:42;54.90;;;21.73;;
74658;SDS011;63186;51.204;6.536;2022-11-21T06:08:07;57.97;;;23.30;;
74658;SDS011;63186;51.204;6.536;2022-11-21T06:10:32;56.63;;;23.45;;
74658;SDS011;63186;51.204;6.536;2022-11-21T06:12:58;57.67;;;23.00;;
74658;SDS011;63186;51.204;6.536;2022-11-21T06:15:25;50.38;;;22.42;;
74658;SDS011;63186;51.204;6.536;2022-11-21T06:17:50;58.58;;;23.88;;
74658;SDS011;63186;51.204;6.536;2022-11-21T06:20:16;55.80;;;21.20;;
74658;SDS011;63186;51.204;6.536;2022-11-21T06:22:41;53.60;;;21.93;;
74658;SDS011;63186;51.204;6.536;2022-11-21T06:25:06;45.33;;;16.63;;
74658;SDS011;63186;51.204;6.536;2022-11-21T06:27:32;35.75;;;16.73;;
74658;SDS011;63186;51.204;6.536;2022-11-21T06:29:57;26.13;;;10.87;;
74658;SDS011;63186;51.204;6.536;2022-11-21T06:32:22;24.93;;;12.30;;
74658;SDS011;63186;51.204;6.536;2022-11-21T06:34:47;25.60;;;11.43;;
74658;SDS011;63186;51.204;6.536;2022-11-21T06:37:13;22.93;;;11.03;;
74658;SDS011;63186;51.204;6.536;2022-11-21T06:39:38;23.27;;;10.73;;
74658;SDS011;63186;51.204;6.536;2022-11-21T06:42:03;27.17;;;11.60;;
74658;SDS011;63186;51.204;6.536;2022-11-21T06:44:28;24.13;;;10.98;;
74658;SDS011;63186;51.204;6.536;2022-11-21T06:46:54;21.20;;;9.33;;
74658;SDS011;63186;51.204;6.536;2022-11-21T06:49:19;22.00;;;10.23;;
74658;SDS011;63186;51.204;6.536;2022-11-21T06:51:46;22.13;;;10.35;;
74658;SDS011;63186;51.204;6.536;2022-11-21T06:54:11;26.25;;;10.30;;
74658;SDS011;63186;51.204;6.536;2022-11-21T06:56:36;21.07;;;10.20;;
74658;SDS011;63186;51.204;6.536;2022-11-21T06:59:01;20.37;;;10.20;;
74658;SDS011;63186;51.204;6.536;2022-11-21T07:01:27;17.57;;;7.53;;
74658;SDS011;63186;51.204;6.536;2022-11-21T07:03:52;20.13;;;10.27;;
74658;SDS011;63186;51.204;6.536;2022-11-21T07:06:18;17.30;;;8.40;;
74658;SDS011;63186;51.204;6.536;2022-11-21T07:08:44;20.73;;;10.27;;
74658;SDS011;63186;51.204;6.536;2022-11-21T07:11:10;21.02;;;11.40;;
74658;SDS011;63186;51.204;6.536;2022-11-21T07:13:37;18.80;;;10.50;;
74658;SDS011;63186;51.204;6.536;2022-11-21T07:16:03;20.50;;;10.17;;
74658;SDS011;63186;51.204;6.536;2022-11-21T07:18:30;20.70;;;11.10;;
74658;SDS011;63186;51.204;6.536;2022-11-21T07:20:59;18.75;;;9.23;;
74658;SDS011;63186;51.204;6.536;2022-11-21T07:23:26;24.70;;;10.80;;
74658;SDS011;63186;51.204;6.536;2022-11-21T07:25:52;22.25;;;10.82;;
74658;SDS011;63186;51.204;6.536;2022-11-21T07:28:17;26.80;;;10.15;;
74658;SDS011;63186;51.204;6.536;2022-11-21T07:30:43;20.20;;;11.07;;
74658;SDS011;63186;51.204;6.536;2022-11-21T07:43:13;21.15;;;9.80;;
74658;SDS011;63186;51.204;6.536;2022-11-21T07:45:38;18.17;;;9.80;;
74658;SDS011;63186;51.204;6.536;2022-11-21T07:48:05;16.67;;;9.53;;
74658;SDS011;63186;51.204;6.536;2022-11-21T07:50:31;21.60;;;10.23;;
74658;SDS011;63186;51.204;6.536;2022-11-21T07:52:57;17.00;;;9.65;;
74658;SDS011;63186;51.204;6.536;2022-11-21T07:55:27;18.60;;;9.07;;
74658;SDS011;63186;51.204;6.536;2022-11-21T07:57:57;18.30;;;9.68;;
74658;SDS011;63186;51.204;6.536;2022-11-21T08:00:29;21.75;;;10.68;;
74658;SDS011;63186;51.204;6.536;2022-11-21T08:02:55;19.45;;;9.07;;
74658;SDS011;63186;51.204;6.536;2022-11-21T08:05:21;17.45;;;10.15;;
74658;SDS011;63186;51.204;6.536;2022-11-21T08:07:46;18.13;;;8.63;;
74658;SDS011;63186;51.204;6.536;2022-11-21T08:10:12;19.38;;;8.57;;
74658;SDS011;63186;51.204;6.536;2022-11-21T08:12:38;21.75;;;8.00;;
74658;SDS011;63186;51.204;6.536;2022-11-21T08:15:03;18.63;;;8.83;;
74658;SDS011;63186;51.204;6.536;2022-11-21T08:17:30;13.68;;;7.30;;
74658;SDS011;63186;51.204;6.536;2022-11-21T08:19:56;19.53;;;8.67;;
74658;SDS011;63186;51.204;6.536;2022-11-21T08:22:22;17.85;;;8.73;;
74658;SDS011;63186;51.204;6.536;2022-11-21T08:24:48;14.73;;;8.00;;
74658;SDS011;63186;51.204;6.536;2022-11-21T08:27:13;12.40;;;7.43;;
74658;SDS011;63186;51.204;6.536;2022-11-21T08:29:40;15.00;;;8.48;;
74658;SDS011;63186;51.204;6.536;2022-11-21T08:32:06;14.63;;;8.55;;
74658;SDS011;63186;51.204;6.536;2022-11-21T08:34:31;17.33;;;8.50;;
74658;SDS011;63186;51.204;6.536;2022-11-21T08:36:56;13.45;;;7.40;;
74658;SDS011;63186;51.204;6.536;2022-11-21T08:39:23;14.73;;;8.20;;
74658;SDS011;63186;51.204;6.536;2022-11-21T08:41:49;14.65;;;8.10;;
74658;SDS011;63186;51.204;6.536;2022-11-21T08:44:35;15.25;;;9.50;;
74658;SDS011;63186;51.204;6.536;2022-11-21T08:47:01;17.58;;;8.52;;
74658;SDS011;63186;51.204;6.536;2022-11-21T08:49:26;16.63;;;9.73;;
74658;SDS011;63186;51.204;6.536;2022-11-21T08:51:52;17.80;;;9.18;;
74658;SDS011;63186;51.204;6.536;2022-11-21T08:54:19;19.08;;;9.05;;
74658;SDS011;63186;51.204;6.536;2022-11-21T08:56:46;23.13;;;9.40;;
74658;SDS011;63186;51.204;6.536;2022-11-21T08:59:11;18.25;;;9.40;;
74658;SDS011;63186;51.204;6.536;2022-11-21T09:01:37;16.87;;;9.57;;
74658;SDS011;63186;51.204;6.536;2022-11-21T09:04:03;16.95;;;8.60;;
74658;SDS011;63186;51.204;6.536;2022-11-21T09:06:29;18.40;;;8.73;;
74658;SDS011;63186;51.204;6.536;2022-11-21T09:08:54;20.52;;;8.70;;
74658;SDS011;63186;51.204;6.536;2022-11-21T09:11:20;20.53;;;9.60;;
74658;SDS011;63186;51.204;6.536;2022-11-21T09:13:45;18.77;;;8.40;;
74658;SDS011;63186;51.204;6.536;2022-11-21T09:16:33;14.45;;;8.10;;
74658;SDS011;63186;51.204;6.536;2022-11-21T09:19:17;14.48;;;8.15;;
74658;SDS011;63186;51.204;6.536;2022-11-21T09:21:42;20.90;;;9.03;;
74658;SDS011;63186;51.204;6.536;2022-11-21T09:24:07;20.37;;;9.27;;
74658;SDS011;63186;51.204;6.536;2022-11-21T09:26:33;12.57;;;7.40;;
74658;SDS011;63186;51.204;6.536;2022-11-21T09:28:58;15.47;;;7.80;;
74658;SDS011;63186;51.204;6.536;2022-11-21T09:31:23;14.27;;;7.77;;
74658;SDS011;63186;51.204;6.536;2022-11-21T09:33:48;15.53;;;8.17;;
74658;SDS011;63186;51.204;6.536;2022-11-21T09:36:14;16.67;;;7.27;;
74658;SDS011;63186;51.204;6.536;2022-11-21T09:38:39;19.27;;;6.97;;
74658;SDS011;63186;51.204;6.536;2022-11-21T09:49:50;16.15;;;6.45;;
74658;SDS011;63186;51.204;6.536;2022-11-21T09:52:27;13.55;;;6.03;;
74658;SDS011;63186;51.204;6.536;2022-11-21T09:55:00;14.38;;;6.40;;
74658;SDS011;63186;51.204;6.536;2022-11-21T09:57:30;12.82;;;5.80;;
74658;SDS011;63186;51.204;6.536;2022-11-21T09:59:57;12.15;;;6.13;;
74658;SDS011;63186;51.204;6.536;2022-11-21T10:02:23;15.18;;;6.00;;
74658;SDS011;63186;51.204;6.536;2022-11-21T10:04:49;14.02;;;5.55;;
74658;SDS011;63186;51.204;6.536;2022-11-21T10:07:29;17.55;;;6.25;;
74658;SDS011;63186;51.204;6.536;2022-11-21T10:13:10;11.25;;;5.22;;
74658;SDS011;63186;51.204;6.536;2022-11-21T10:15:57;10.77;;;4.40;;
74658;SDS011;63186;51.204;6.536;2022-11-21T10:18:45;17.88;;;5.25;;
74658;SDS011;63186;51.204;6.536;2022-11-21T10:24:17;10.07;;;4.78;;
74658;SDS011;63186;51.204;6.536;2022-11-21T10:27:05;11.35;;;4.47;;
74658;SDS011;63186;51.204;6.536;2022-11-21T10:29:40;13.05;;;4.70;;
74658;SDS011;63186;51.204;6.536;2022-11-21T10:32:21;9.70;;;4.50;;
74658;SDS011;63186;51.204;6.536;2022-11-21T10:34:50;10.48;;;4.82;;
74658;SDS011;63186;51.204;6.536;2022-11-21T10:39:55;8.60;;;4.57;;
74658;SDS011;63186;51.204;6.536;2022-11-21T10:42:46;10.40;;;3.95;;
74658;SDS011;63186;51.204;6.536;2022-11-21T10:45:23;10.65;;;3.88;;
74658;SDS011;63186;51.204;6.536;2022-11-21T10:47:50;13.32;;;4.68;;
74658;SDS011;63186;51.204;6.536;2022-11-21T10:50:52;9.90;;;3.42;;
74658;SDS011;63186;51.204;6.536;2022-11-21T10:53:11;9.55;;;4.15;;
74658;SDS011;63186;51.204;6.536;2022-11-21T10:56:16;9.85;;;3.60;;
74658;SDS011;63186;51.204;6.536;2022-11-21T10:58:47;13.10;;;3.70;;
74658;SDS011;63186;51.204;6.536;2022-11-21T11:01:26;8.18;;;3.80;;
74658;SDS011;63186;51.204;6.536;2022-11-21T11:06:34;9.80;;;4.22;;
74658;SDS011;63186;51.204;6.536;2022-11-21T11:09:20;7.95;;;3.05;;
74658;SDS011;63186;51.204;6.536;2022-11-21T11:11:50;7.70;;;3.75;;
74658;SDS011;63186;51.204;6.536;2022-11-21T11:14:28;8.35;;;3.22;;
74658;SDS011;63186;51.204;6.536;2022-11-21T11:16:56;7.47;;;3.10;;
74658;SDS011;63186;51.204;6.536;2022-11-21T11:19:24;10.95;;;3.75;;
74658;SDS011;63186;51.204;6.536;2022-11-21T11:21:53;8.68;;;2.80;;
74658;SDS011;63186;51.204;6.536;2022-11-21T11:24:21;9.77;;;3.55;;
74658;SDS011;63186;51.204;6.536;2022-11-21T11:26:52;8.45;;;2.63;;
74658;SDS011;63186;51.204;6.536;2022-11-21T11:29:23;8.52;;;2.97;;
74658;SDS011;63186;51.204;6.536;2022-11-21T11:31:55;8.23;;;2.85;;
74658;SDS011;63186;51.204;6.536;2022-11-21T11:34:20;9.38;;;2.60;;
74658;SDS011;63186;51.204;6.536;2022-11-21T11:36:52;8.45;;;3.08;;
74658;SDS011;63186;51.204;6.536;2022-11-21T11:39:23;9.73;;;3.50;;
74658;SDS011;63186;51.204;6.536;2022-11-21T11:48:07;5.45;;;2.20;;
74658;SDS011;63186;51.204;6.536;2022-11-21T11:50:46;9.25;;;3.63;;
74658;SDS011;63186;51.204;6.536;2022-11-21T11:53:14;7.00;;;2.20;;
74658;SDS011;63186;51.204;6.536;2022-11-21T11:55:50;6.65;;;2.35;;
74658;SDS011;63186;51.204;6.536;2022-11-21T11:58:26;8.45;;;2.50;;
74658;SDS011;63186;51.204;6.536;2022-11-21T12:01:09;5.22;;;2.28;;
74658;SDS011;63186;51.204;6.536;2022-11-21T12:03:44;6.78;;;2.10;;
74658;SDS011;63186;51.204;6.536;2022-11-21T12:06:33;6.70;;;2.40;;
74658;SDS011;63186;51.204;6.536;2022-11-21T12:09:10;6.03;;;1.77;;
74658;SDS011;63186;51.204;6.536;2022-11-21T12:11:56;6.22;;;2.00;;
74658;SDS011;63186;51.204;6.536;2022-11-21T12:17:49;3.92;;;1.70;;
74658;SDS011;63186;51.204;6.536;2022-11-21T12:20:20;3.83;;;1.67;;
74658;SDS011;63186;51.204;6.536;2022-11-21T12:22:50;4.03;;;1.75;;
74658;SDS011;63186;51.204;6.536;2022-11-21T12:25:18;6.93;;;1.55;;
74658;SDS011;63186;51.204;6.536;2022-11-21T12:27:49;5.30;;;1.50;;
74658;SDS011;63186;51.204;6.536;2022-11-21T12:33:02;6.63;;;2.75;;
74658;SDS011;63186;51.204;6.536;2022-11-21T12:41:01;7.53;;;2.35;;
74658;SDS011;63186;51.204;6.536;2022-11-21T12:43:57;7.35;;;2.42;;
74658;SDS011;63186;51.204;6.536;2022-11-21T12:46:35;7.75;;;2.83;;
74658;SDS011;63186;51.204;6.536;2022-11-21T12:52:30;5.45;;;2.45;;
74658;SDS011;63186;51.204;6.536;2022-11-21T12:58:37;7.72;;;2.38;;
74658;SDS011;63186;51.204;6.536;2022-11-21T13:06:33;5.72;;;2.03;;
74658;SDS011;63186;51.204;6.536;2022-11-21T13:09:04;9.15;;;1.90;;
74658;SDS011;63186;51.204;6.536;2022-11-21T13:14:25;4.97;;;1.45;;
74658;SDS011;63186;51.204;6.536;2022-11-21T13:17:12;3.95;;;1.67;;
74658;SDS011;63186;51.204;6.536;2022-11-21T13:19:55;6.28;;;1.67;;
74658;SDS011;63186;51.204;6.536;2022-11-21T13:25:02;4.70;;;1.67;;
74658;SDS011;63186;51.204;6.536;2022-11-21T13:27:29;8.38;;;2.58;;
74658;SDS011;63186;51.204;6.536;2022-11-21T13:30:18;5.65;;;1.70;;
74658;SDS011;63186;51.204;6.536;2022-11-21T13:56:41;8.02;;;2.25;;
74658;SDS011;63186;51.204;6.536;2022-11-21T14:01:52;7.28;;;1.90;;
74658;SDS011;63186;51.204;6.536;2022-11-21T14:09:57;5.03;;;2.20;;
74658;SDS011;63186;51.204;6.536;2022-11-21T14:12:28;5.03;;;1.52;;
74658;SDS011;63186;51.204;6.536;2022-11-21T14:20:30;4.28;;;1.65;;
74658;SDS011;63186;51.204;6.536;2022-11-21T14:23:20;3.85;;;1.50;;
74658;SDS011;63186;51.204;6.536;2022-11-21T14:25:48;3.97;;;1.60;;
74658;SDS011;63186;51.204;6.536;2022-11-21T14:28:28;3.95;;;1.23;;
74658;SDS011;63186;51.204;6.536;2022-11-21T14:30:56;3.90;;;1.13;;
74658;SDS011;63186;51.204;6.536;2022-11-21T14:36:12;4.05;;;1.35;;
74658;SDS011;63186;51.204;6.536;2022-11-21T14:38:54;2.45;;;1.40;;
74658;SDS011;63186;51.204;6.536;2022-11-21T14:43:49;3.33;;;1.50;;
74658;SDS011;63186;51.204;6.536;2022-11-21T14:46:36;4.28;;;1.35;;
74658;SDS011;63186;51.204;6.536;2022-11-21T14:51:40;3.90;;;1.52;;
74658;SDS011;63186;51.204;6.536;2022-11-21T14:54:13;4.47;;;1.42;;
74658;SDS011;63186;51.204;6.536;2022-11-21T14:56:42;3.75;;;1.40;;
74658;SDS011;63186;51.204;6.536;2022-11-21T14:59:21;2.63;;;1.15;;
74658;SDS011;63186;51.204;6.536;2022-11-21T15:02:02;2.78;;;1.20;;
74658;SDS011;63186;51.204;6.536;2022-11-21T15:04:35;5.40;;;1.70;;
74658;SDS011;63186;51.204;6.536;2022-11-21T15:07:00;1.85;;;1.10;;
74658;SDS011;63186;51.204;6.536;2022-11-21T15:09:26;3.85;;;1.80;;
74658;SDS011;63186;51.204;6.536;2022-11-21T15:12:02;2.70;;;1.90;;
74658;SDS011;63186;51.204;6.536;2022-11-21T15:14:32;3.70;;;2.13;;
74658;SDS011;63186;51.204;6.536;2022-11-21T15:17:04;7.78;;;2.10;;
74658;SDS011;63186;51.204;6.536;2022-11-21T15:19:34;6.10;;;1.58;;
74658;SDS011;63186;51.204;6.536;2022-11-21T15:22:01;5.70;;;1.77;;
74658;SDS011;63186;51.204;6.536;2022-11-21T15:24:41;7.20;;;1.55;;
74658;SDS011;63186;51.204;6.536;2022-11-21T15:30:04;3.95;;;1.48;;
74658;SDS011;63186;51.204;6.536;2022-11-21T15:32:33;4.20;;;1.50;;
74658;SDS011;63186;51.204;6.536;2022-11-21T15:43:38;7.65;;;1.83;;
74658;SDS011;63186;51.204;6.536;2022-11-21T15:48:52;4.35;;;1.50;;
74658;SDS011;63186;51.204;6.536;2022-11-21T15:51:19;3.33;;;1.20;;
74658;SDS011;63186;51.204;6.536;2022-11-21T15:53:45;3.13;;;1.55;;
74658;SDS011;63186;51.204;6.536;2022-11-21T15:56:12;3.17;;;1.35;;
74658;SDS011;63186;51.204;6.536;2022-11-21T15:58:39;4.50;;;1.80;;
74658;SDS011;63186;51.204;6.536;2022-11-21T16:01:05;5.00;;;1.92;;
74658;SDS011;63186;51.204;6.536;2022-11-21T16:03:35;10.43;;;1.70;;
74658;SDS011;63186;51.204;6.536;2022-11-21T16:06:00;7.63;;;1.80;;
74658;SDS011;63186;51.204;6.536;2022-11-21T16:08:25;3.40;;;1.83;;
74658;SDS011;63186;51.204;6.536;2022-11-21T16:10:51;4.20;;;1.73;;
74658;SDS011;63186;51.204;6.536;2022-11-21T16:13:16;2.53;;;1.17;;
74658;SDS011;63186;51.204;6.536;2022-11-21T16:15:41;5.03;;;1.70;;
74658;SDS011;63186;51.204;6.536;2022-11-21T16:18:07;7.93;;;2.13;;
74658;SDS011;63186;51.204;6.536;2022-11-21T16:20:32;2.50;;;1.38;;
74658;SDS011;63186;51.204;6.536;2022-11-21T16:22:57;5.13;;;2.27;;
74658;SDS011;63186;51.204;6.536;2022-11-21T16:25:23;3.95;;;1.45;;
74658;SDS011;63186;51.204;6.536;2022-11-21T16:27:48;5.80;;;2.20;;
74658;SDS011;63186;51.204;6.536;2022-11-21T16:30:13;4.03;;;1.88;;
74658;SDS011;63186;51.204;6.536;2022-11-21T16:32:39;6.13;;;2.00;;
74658;SDS011;63186;51.204;6.536;2022-11-21T16:35:04;5.53;;;1.80;;
74658;SDS011;63186;51.204;6.536;2022-11-21T16:37:30;3.88;;;1.83;;
74658;SDS011;63186;51.204;6.536;2022-11-21T16:39:56;6.60;;;2.10;;
74658;SDS011;63186;51.204;6.536;2022-11-21T16:42:21;5.93;;;1.80;;
74658;SDS011;63186;51.204;6.536;2022-11-21T16:44:46;4.07;;;1.90;;
74658;SDS011;63186;51.204;6.536;2022-11-21T16:47:12;6.28;;;2.30;;
74658;SDS011;63186;51.204;6.536;2022-11-21T16:49:38;6.15;;;2.60;;
74658;SDS011;63186;51.204;6.536;2022-11-21T16:52:08;3.70;;;1.77;;
74658;SDS011;63186;51.204;6.536;2022-11-21T16:54:34;7.80;;;2.60;;
74658;SDS011;63186;51.204;6.536;2022-11-21T16:56:59;5.40;;;2.00;;